• Join FlightAware (Why Join?)
  • Login
  • US Flag 
01:09AM EDT


 

Airport Tracker/Info


-or-


 

Live Flight TrackerFlight Track Log ✈ AWE2690 ✈ 02-Sep-2013 ✈ KIAD - KCLT

Flight Track Log - Related Links

Times and Time Zones

All times are in EDT time to prevent confusion due to time zone crossing. See the AWE2690 flight status page for this flight to view local times or setup timezone preferences in your user account.

Time Position Orientation Groundspeed Altitude Reporting Facility
EDT Latitude Longitude Course Direction KTS MPH feet Rate Location/Type
11:20AM 38.9167 -77.5500 238° Southwest 249 287 2,500  Level Potomac TRACON
11:21AM 38.8836 -77.6292 242° Southwest 270 311 5,000 2,760 Climbing Washington Center
11:22AM 38.5410 -77.5318 189° South  Level FlightAware Approximate
11:22AM 38.8244 -77.6753 211° Southwest 284 327 7,900  Level Washington Center
11:23AM 38.4405 -77.5436 185° South  Level FlightAware Approximate
11:23AM 38.7447 -77.7025 195° South 313 360 10,300  Level Washington Center
11:24AM 38.3709 -77.5988 224° Southwest  Level FlightAware Approximate
11:24AM 38.6494 -77.6650 163° South 363 418 12,000  Level Washington Center
11:25AM 38.3033 -77.6934 238° Southwest  Level FlightAware Approximate
11:25AM 38.5294 -77.6194 163° South 370 426 14,700  Level Washington Center
11:26AM 38.4278 -77.5794 163° South 370 426 17,000 2,100 Climbing Washington Center
11:27AM 38.3708 -77.6175 208° Southwest 381 438 18,900 1,620 Climbing Washington Center
11:28AM 38.2853 -77.7397 228° Southwest 370 426 20,400 1,020 Climbing Washington Center
11:29AM 38.2147 -77.8458 230° Southwest 383 441 21,000 900 Climbing Washington Center
11:30AM 38.1394 -77.9650 231° Southwest 417 480 22,300 1,680 Climbing Washington Center
11:31AM 38.0661 -78.0764 230° Southwest 426 490 24,400 1,680 Climbing Washington Center
11:32AM 37.9931 -78.1844 229° Southwest 421 484 25,700 1,260 Climbing Washington Center
11:33AM 37.9197 -78.2925 229° Southwest 411 473 27,000 1,020 Climbing Washington Center
11:34AM 37.8442 -78.4031 229° Southwest 416 479 27,800 480 Climbing Washington Center
11:35AM 37.7625 -78.5075 225° Southwest 424 488 28,000 60 Climbing Washington Center
11:36AM 37.6747 -78.6014 220° Southwest 424 488 28,000  Level Washington Center
11:37AM 37.6125 -78.6697 221° Southwest 424 488 28,000  Level Washington Center
11:38AM 37.5031 -78.7856 220° Southwest 424 488 28,000  Level Washington Center
11:39AM 37.4128 -78.8839 221° Southwest 429 494 28,000  Level Washington Center
11:40AM 37.3181 -78.9817 219° Southwest 429 494 28,000  Level Washington Center
11:41AM 37.2128 -79.0942 220° Southwest 443 510 28,000  Level Washington Center
11:42AM 37.1222 -79.1917 221° Southwest 443 510 28,000  Level Washington Center
11:43AM 37.0275 -79.2914 220° Southwest 443 510 28,000  Level Washington Center
11:44AM 36.9344 -79.3908 221° Southwest 443 510 28,000  Level Washington Center
11:45AM 36.8417 -79.4875 220° Southwest 438 504 28,000 -120 Level Washington Center
11:46AM 36.7594 -79.5767 221° Southwest 438 504 27,800 -900 Descending Washington Center
11:47AM 36.6708 -79.6706 220° Southwest 432 497 26,200 -1,680 Descending Washington Center
11:48AM 36.5778 -79.7667 220° Southwest 432 497 24,500 -1,800 Descending Washington Center
11:49AM 36.4672 -79.8722 218° Southwest 429 494 22,500 -1,200 Descending Atlanta Center
11:50AM 36.3678 -79.9572 215° Southwest 442 509 22,000 -300 Descending Atlanta Center
11:51AM 36.2686 -80.0419 215° Southwest 442 509 22,000  Level Atlanta Center
11:52AM 36.1608 -80.1347 215° Southwest 435 501 22,000 -60 Level Atlanta Center
11:53AM 36.0614 -80.2219 215° Southwest 440 506 21,900 -1,800 Descending Atlanta Center
11:54AM 35.9658 -80.3033 215° Southwest 434 499 18,500 -3,720 Descending Atlanta Center
11:54AM 35.9133 -80.3519 217° Southwest 380 437 16,100 -3,120 Descending Atlanta Center
11:56AM 35.7850 -80.4575 214° Southwest 377 434 11,900 -2,160 Descending Atlanta Center
11:57AM 35.7094 -80.5144 211° Southwest 379 436 11,000 -1,620 Descending Atlanta Center
11:58AM 35.6597 -80.6036 236° Southwest 265 305 8,700 -2,040 Descending Atlanta Center
11:59AM 35.6411 -80.6861 255° West 271 312 6,800 -1,500 Descending Atlanta Center
12:00PM 35.6075 -80.7564 240° Southwest 269 310 6,000 -780 Descending Atlanta Center
12:01PM 35.5589 -80.8094 222° Southwest 264 304 5,400 -1,020 Descending Atlanta Center
12:02PM 35.5000 -80.8678 219° Southwest 263 303 4,000 -720 Descending Atlanta Center
12:03PM 35.4453 -80.9286 222° Southwest 274 315 4,000  Level Atlanta Center
12:04PM 35.3817 -80.9744 210° Southwest 268 308 4,000 -840 Level Atlanta Center
12:05PM 35.3044 -80.9772 182° South 244 281 2,400 -1,260 Descending Atlanta Center
12:06PM 35.2564 -80.9739 177° South 150 173 1,400 -1,020 Descending Atlanta Center
12:08PM 35.2137 -80.9491 165° South  Level Estimated
12:15PM 35.2137 -80.9491 165° South  Level Estimated